Time;durP1;ratioP1;P1;durP2;ratioP2;P2;SDS_P1;SDS_P2;PMS_P1;PMS_P2;Temp;Humidity;BMP_temperature;BMP_pressure;BME280_temperature;BME280_humidity;BME280_pressure;Samples;Min_cycle;Max_cycle;Signal;HPM_P1;HPM_P2
2023/07/05 00:00:23;;;;;;;22.58;17.33;;;;;;;19.49;65.02;99491.09;5092075;28;20032;-81
2023/07/05 00:02:52;;;;;;;25.75;17.70;;;;;;;19.41;65.20;99489.94;5091646;28;20024;-81
2023/07/05 00:05:17;;;;;;;21.00;16.27;;;;;;;19.27;65.16;99466.53;5089744;28;20472;-81
2023/07/05 00:07:43;;;;;;;22.02;16.48;;;;;;;19.29;64.94;99463.75;5091922;28;20036;-81
2023/07/05 00:10:09;;;;;;;26.65;16.95;;;;;;;19.35;65.15;99479.09;5091846;28;20118;-81
2023/07/05 00:12:34;;;;;;;26.00;16.92;;;;;;;19.24;65.22;99452.75;5093840;28;20028;-81
2023/07/05 00:15:00;;;;;;;20.77;16.55;;;;;;;19.26;64.87;99453.47;5095952;28;20024;-81
2023/07/05 00:17:25;;;;;;;23.17;17.23;;;;;;;19.36;64.85;99475.47;5096047;28;20031;-81
2023/07/05 00:19:51;;;;;;;20.73;15.13;;;;;;;19.36;64.80;99462.28;5095407;28;20035;-81
2023/07/05 00:22:17;;;;;;;21.05;14.93;;;;;;;19.35;64.39;99457.97;5095971;28;20055;-81
2023/07/05 00:24:42;;;;;;;21.85;14.45;;;;;;;19.42;64.84;99467.00;5095392;28;20055;-81
2023/07/05 00:27:07;;;;;;;23.33;15.45;;;;;;;19.28;64.29;99446.25;5095891;28;20103;-81
2023/07/05 00:29:33;;;;;;;20.00;13.77;;;;;;;19.17;64.30;99426.91;5095416;28;20028;-81
2023/07/05 00:31:58;;;;;;;20.10;14.18;;;;;;;19.29;64.41;99456.66;5095500;28;20028;-81
2023/07/05 00:34:23;;;;;;;18.75;14.55;;;;;;;19.32;64.45;99456.41;5095449;28;20099;-81
2023/07/05 00:36:49;;;;;;;21.90;13.18;;;;;;;19.30;64.48;99455.72;5095127;28;20048;-81
2023/07/05 00:39:14;;;;;;;16.98;13.35;;;;;;;19.20;64.57;99439.81;5095532;28;20054;-81
2023/07/05 00:41:39;;;;;;;17.83;13.40;;;;;;;19.36;64.67;99463.09;5095091;28;20210;-81
2023/07/05 00:44:05;;;;;;;18.65;13.20;;;;;;;19.26;64.60;99449.03;5095394;28;20376;-81
2023/07/05 00:46:33;;;;;;;18.75;12.93;;;;;;;19.17;64.29;99439.22;5094979;28;20058;-81
2023/07/05 00:49:04;;;;;;;15.65;12.60;;;;;;;19.10;64.32;99433.66;5095214;28;20095;-81
2023/07/05 00:51:52;;;;;;;17.90;12.45;;;;;;;19.33;63.95;99459.88;5095166;28;20052;-81
2023/07/05 00:54:23;;;;;;;13.07;10.98;;;;;;;19.23;64.03;99443.16;5095264;28;20020;-81
2023/07/05 00:56:53;;;;;;;15.80;11.50;;;;;;;19.37;63.91;99459.47;5094911;28;20044;-81
2023/07/05 00:59:21;;;;;;;14.52;12.02;;;;;;;19.39;64.19;99456.72;5094876;28;20250;-81
2023/07/05 01:01:46;;;;;;;14.70;11.50;;;;;;;19.40;63.53;99458.41;5094704;28;20069;-81
2023/07/05 01:04:12;;;;;;;17.23;10.60;;;;;;;19.40;63.51;99456.59;5095375;28;20020;-81
2023/07/05 01:06:39;;;;;;;16.67;11.82;;;;;;;19.14;63.60;99415.75;5094662;28;20650;-82
2023/07/05 01:09:06;;;;;;;15.32;11.05;;;;;;;19.43;63.64;99452.84;5095073;28;20027;-81
2023/07/05 01:11:51;;;;;;;14.07;10.77;;;;;;;19.40;64.21;99456.59;5094561;28;20054;-81
2023/07/05 01:14:35;;;;;;;20.63;14.20;;;;;;;19.30;65.56;99453.06;5094784;28;20028;-81
2023/07/05 01:17:25;;;;;;;17.70;13.75;;;;;;;19.26;66.34;99458.75;5095020;28;20081;-81
2023/07/05 01:19:59;;;;;;;22.90;15.98;;;;;;;19.12;67.00;99459.91;5094052;28;20472;-81
2023/07/05 01:22:46;;;;;;;22.88;14.52;;;;;;;19.05;67.65;99461.41;5094317;28;20024;-81
2023/07/05 01:25:29;;;;;;;21.23;15.20;;;;;;;18.94;68.05;99475.50;5094381;28;20085;-81
2023/07/05 01:28:19;;;;;;;20.73;15.88;;;;;;;18.80;69.18;99467.94;5094288;28;20043;-81
2023/07/05 01:30:56;;;;;;;23.00;15.75;;;;;;;18.70;69.46;99463.38;5093933;28;20028;-81
2023/07/05 01:33:45;;;;;;;22.85;15.82;;;;;;;18.44;69.82;99427.78;5094398;28;20035;-81
2023/07/05 01:36:12;;;;;;;21.80;15.30;;;;;;;18.51;70.11;99451.84;5094275;28;20090;-81
2023/07/05 01:38:37;;;;;;;20.17;15.07;;;;;;;18.48;70.71;99454.72;5094059;28;20024;-81
2023/07/05 01:41:05;;;;;;;22.13;15.52;;;;;;;18.25;71.20;99433.72;5094053;28;20043;-81
2023/07/05 01:43:37;;;;;;;24.40;15.95;;;;;;;18.23;71.54;99440.06;5093984;28;20118;-81
2023/07/05 01:46:11;;;;;;;19.17;15.40;;;;;;;18.05;72.95;99443.25;5094062;28;20056;-81
2023/07/05 01:49:02;;;;;;;22.35;15.82;;;;;;;18.13;73.54;99471.63;5093772;28;20430;-81
2023/07/05 01:51:34;;;;;;;;;;;;;;;18.03;74.25;99473.31;5094218;28;20415;-81
2023/07/05 01:54:23;;;;;;;20.25;15.02;;;;;;;17.97;74.09;99463.28;5093605;28;20375;-81
2023/07/05 01:57:21;;;;;;;21.33;15.23;;;;;;;17.87;75.04;99469.28;5093658;28;20080;-81
2023/07/05 01:59:55;;;;;;;21.23;14.85;;;;;;;17.66;75.31;99453.34;5090930;28;20527;-81
2023/07/05 02:02:31;;;;;;;20.48;14.68;;;;;;;17.70;75.52;99465.31;5091259;28;20043;-81
2023/07/05 02:05:00;;;;;;;18.30;14.30;;;;;;;17.61;75.23;99454.66;5090948;28;20069;-81
2023/07/05 02:07:27;;;;;;;20.90;14.73;;;;;;;17.64;75.23;99468.44;5091176;28;20529;-81
2023/07/05 02:09:53;;;;;;;19.67;15.02;;;;;;;17.46;75.46;99439.13;5090759;28;20036;-81
2023/07/05 02:12:18;;;;;;;20.30;14.68;;;;;;;17.53;75.88;99454.41;5091100;28;20431;-81
2023/07/05 02:14:44;;;;;;;19.55;14.88;;;;;;;17.38;75.84;99432.78;5091098;28;20032;-81
2023/07/05 02:17:09;;;;;;;19.65;13.70;;;;;;;17.43;76.50;99449.88;5091392;28;20032;-81
2023/07/05 02:19:34;;;;;;;18.13;14.20;;;;;;;17.41;76.89;99454.44;5091147;28;20039;-81
2023/07/05 02:22:00;;;;;;;20.30;14.98;;;;;;;17.29;77.09;99436.97;5090828;28;20114;-81
2023/07/05 02:24:25;;;;;;;18.98;14.02;;;;;;;17.18;77.33;99427.25;5090862;28;20043;-81
2023/07/05 02:26:54;;;;;;;18.35;13.48;;;;;;;17.12;77.47;99426.91;5090702;28;20032;-81
2023/07/05 02:29:20;;;;;;;19.67;14.90;;;;;;;17.08;77.64;99418.41;5090610;28;20257;-81
2023/07/05 02:31:45;;;;;;;19.58;13.77;;;;;;;17.20;77.95;99448.22;5090754;28;20028;-81
2023/07/05 02:34:10;;;;;;;19.05;14.35;;;;;;;17.09;78.63;99435.88;5090399;28;20032;-81
2023/07/05 02:36:36;;;;;;;17.95;14.10;;;;;;;17.18;78.77;99443.03;5091477;28;20101;-81
2023/07/05 02:39:01;;;;;;;22.13;15.45;;;;;;;17.01;79.04;99416.38;5092835;28;20052;-81
2023/07/05 02:41:27;;;;;;;18.75;14.75;;;;;;;17.08;79.82;99439.47;5093073;28;20027;-81
2023/07/05 02:43:52;;;;;;;20.08;14.77;;;;;;;17.08;79.90;99447.34;5092689;28;20028;-81
2023/07/05 02:46:17;;;;;;;18.85;14.45;;;;;;;17.05;79.96;99441.50;5093132;28;20666;-81
2023/07/05 02:48:45;;;;;;;22.30;16.27;;;;;;;16.83;79.94;99411.56;5092838;28;20020;-81
2023/07/05 02:51:10;;;;;;;19.10;14.77;;;;;;;16.87;80.39;99426.16;5092882;28;20411;-81
2023/07/05 02:53:36;;;;;;;21.90;16.20;;;;;;;16.89;80.71;99426.84;5092696;28;20039;-81
2023/07/05 02:56:01;;;;;;;24.70;16.52;;;;;;;16.78;81.00;99415.50;5092570;28;20028;-81
2023/07/05 02:58:26;;;;;;;19.10;14.82;;;;;;;16.74;81.17;99403.53;5092832;28;20076;-81
2023/07/05 03:00:52;;;;;;;25.30;16.92;;;;;;;16.70;81.00;99405.53;5092374;28;20020;-81
2023/07/05 03:03:17;;;;;;;26.15;17.08;;;;;;;16.69;81.26;99417.84;5092993;28;20020;-81
2023/07/05 03:05:42;;;;;;;23.05;16.70;;;;;;;16.78;80.98;99418.97;5092562;28;20020;-81
2023/07/05 03:08:08;;;;;;;23.75;16.83;;;;;;;16.84;81.26;99422.91;5092952;28;20538;-81
2023/07/05 03:10:38;;;;;;;22.17;15.93;;;;;;;16.70;81.72;99403.72;5092544;28;20028;-81
2023/07/05 03:13:03;;;;;;;27.30;15.57;;;;;;;16.74;81.44;99424.59;5092422;28;20028;-81
2023/07/05 03:15:30;;;;;;;21.60;15.98;;;;;;;16.76;81.17;99417.41;5092774;28;20459;-81
2023/07/05 03:17:55;;;;;;;22.33;15.75;;;;;;;16.72;81.28;99406.22;5092426;28;20062;-81
2023/07/05 03:20:21;;;;;;;23.20;15.43;;;;;;;16.84;81.10;99434.28;5092439;28;20391;-81
2023/07/05 03:22:46;;;;;;;23.35;16.63;;;;;;;16.71;81.15;99402.78;5092092;28;20024;-81
2023/07/05 03:25:12;;;;;;;18.38;14.00;;;;;;;16.76;80.83;99407.72;5092413;28;20379;-81
2023/07/05 03:27:37;;;;;;;21.67;16.10;;;;;;;16.90;79.91;99423.31;5092347;28;20020;-81
2023/07/05 03:30:02;;;;;;;19.10;14.35;;;;;;;16.76;78.83;99401.63;5092165;28;20493;-81
2023/07/05 03:32:29;;;;;;;22.83;15.07;;;;;;;16.78;78.49;99400.56;5092525;28;20077;-81
2023/07/05 03:34:54;;;;;;;19.73;15.10;;;;;;;17.00;78.12;99425.22;5072185;28;20042;-81
2023/07/05 03:37:20;;;;;;;23.33;15.77;;;;;;;16.96;77.13;99403.56;5072094;28;20123;-81
2023/07/05 03:39:45;;;;;;;21.60;15.27;;;;;;;17.03;76.48;99406.56;5071855;28;20025;-81
2023/07/05 03:42:10;;;;;;;21.90;15.50;;;;;;;17.12;76.04;99422.47;5072063;28;20032;-81
2023/07/05 03:44:36;;;;;;;22.55;15.95;;;;;;;17.07;75.99;99395.69;5072474;28;20024;-81
2023/07/05 03:47:01;;;;;;;21.27;15.23;;;;;;;17.19;75.86;99401.78;5073308;28;20064;-81
2023/07/05 03:49:27;;;;;;;24.23;15.80;;;;;;;17.35;75.72;99415.41;5076154;28;20423;-81
2023/07/05 03:51:52;;;;;;;23.40;17.10;;;;;;;17.38;74.90;99401.19;5074525;28;20028;-81
2023/07/05 03:54:18;;;;;;;21.73;16.40;;;;;;;17.32;75.06;99386.72;5075999;28;20021;-81
2023/07/05 03:56:43;;;;;;;21.80;16.45;;;;;;;17.53;75.01;99414.91;5075576;28;20060;-81
2023/07/05 03:59:09;;;;;;;26.25;17.38;;;;;;;17.54;74.79;99412.19;5075842;28;20037;-81
2023/07/05 04:01:34;;;;;;;23.30;16.58;;;;;;;17.63;74.61;99407.97;5076009;28;20033;-81
2023/07/05 04:04:01;;;;;;;24.58;18.00;;;;;;;17.74;74.27;99412.38;5075946;28;20029;-81
2023/07/05 04:06:32;;;;;;;25.60;18.50;;;;;;;17.81;74.23;99411.81;5076011;28;20060;-81
2023/07/05 04:08:58;;;;;;;25.33;18.17;;;;;;;17.87;73.42;99405.22;5075684;28;20070;-81
2023/07/05 04:11:23;;;;;;;24.08;18.58;;;;;;;18.01;74.18;99407.56;5075553;28;20032;-81
2023/07/05 04:13:50;;;;;;;24.42;18.23;;;;;;;18.08;73.58;99387.66;5075600;28;20031;-81
2023/07/05 04:16:21;;;;;;;26.65;18.60;;;;;;;18.22;72.83;99380.41;5075770;28;20032;-81
2023/07/05 04:18:50;;;;;;;26.63;19.02;;;;;;;18.63;71.88;99400.72;5075230;28;20025;-81
2023/07/05 04:21:16;;;;;;;30.17;19.77;;;;;;;18.78;71.12;99374.84;5075303;28;20468;-81
2023/07/05 04:23:42;;;;;;;28.80;20.35;;;;;;;19.23;70.11;99407.03;5075621;28;20047;-81
2023/07/05 04:26:13;;;;;;;30.17;19.92;;;;;;;19.59;69.02;99386.28;5074934;28;20040;-82
2023/07/05 04:28:40;;;;;;;26.58;20.23;;;;;;;20.47;66.75;99408.38;5075881;28;20032;-82
2023/07/05 04:31:09;;;;;;;24.10;19.30;;;;;;;21.45;64.34;99402.78;5074838;28;20455;-82
2023/07/05 04:33:34;;;;;;;23.55;18.98;;;;;;;22.20;62.10;99394.63;5075383;28;20028;-82
2023/07/05 04:36:01;;;;;;;27.88;20.58;;;;;;;22.67;60.95;99404.00;5074797;28;20090;-81
2023/07/05 04:38:27;;;;;;;26.30;20.10;;;;;;;22.37;61.07;99389.28;5075244;28;20020;-81
2023/07/05 04:40:53;;;;;;;26.38;19.98;;;;;;;21.85;61.96;99375.88;5074986;28;20024;-81
2023/07/05 04:43:18;;;;;;;26.35;20.75;;;;;;;21.47;63.40;99376.94;5074155;28;20429;-81
2023/07/05 04:45:51;;;;;;;37.72;26.33;;;;;;;21.42;63.71;99387.16;5075554;28;20107;-82
2023/07/05 04:48:17;;;;;;;26.20;21.23;;;;;;;21.59;63.88;99396.97;5075358;28;20036;-82
2023/07/05 04:50:44;;;;;;;25.70;20.95;;;;;;;21.96;62.64;99388.09;5075003;28;20028;-82
2023/07/05 04:53:09;;;;;;;29.58;21.25;;;;;;;22.67;61.38;99381.91;5072491;28;20032;-82
2023/07/05 04:55:56;;;;;;;26.10;21.10;;;;;;;23.70;59.17;99390.78;5075322;28;20178;-82
2023/07/05 04:58:23;;;;;;;23.77;20.45;;;;;;;23.90;58.47;99380.69;5071637;28;20040;-82
2023/07/05 05:00:49;;;;;;;24.70;20.70;;;;;;;23.65;57.94;99371.81;5072064;28;20067;-82
2023/07/05 05:03:21;;;;;;;25.52;20.45;;;;;;;23.44;58.62;99388.16;5072252;28;20404;-81
2023/07/05 05:05:50;;;;;;;27.67;21.85;;;;;;;23.09;59.78;99383.84;5072014;28;20111;-82
2023/07/05 05:08:15;;;;;;;25.30;20.33;;;;;;;22.85;60.22;99382.69;5072107;28;20060;-82
2023/07/05 05:10:41;;;;;;;24.65;20.95;;;;;;;22.67;60.19;99363.34;5072168;28;20102;-82
2023/07/05 05:13:07;;;;;;;28.60;21.90;;;;;;;22.76;60.10;99353.59;5071857;28;20064;-82
2023/07/05 05:15:37;;;;;;;24.75;20.30;;;;;;;23.44;59.78;99371.41;5072185;28;20150;-82
2023/07/05 05:18:03;;;;;;;27.98;22.05;;;;;;;24.34;56.92;99367.91;5071691;28;20052;-82
2023/07/05 05:20:30;;;;;;;27.85;21.20;;;;;;;25.12;55.55;99363.84;5055263;28;20048;-82
2023/07/05 05:22:56;;;;;;;27.70;21.67;;;;;;;25.21;54.55;99357.50;5071677;28;20025;-82
2023/07/05 05:25:22;;;;;;;26.20;21.27;;;;;;;24.57;55.40;99348.66;5071732;28;20090;-82
2023/07/05 05:27:47;;;;;;;24.73;20.58;;;;;;;23.99;57.07;99337.13;5072142;28;20052;-82
2023/07/05 05:30:13;;;;;;;26.13;20.52;;;;;;;23.87;57.59;99363.22;5071805;28;20554;-82
2023/07/05 05:32:38;;;;;;;25.98;20.48;;;;;;;23.57;58.83;99347.84;5071532;28;20052;-82
2023/07/05 05:35:04;;;;;;;24.08;20.38;;;;;;;23.74;58.13;99364.69;5071220;28;20087;-82
2023/07/05 05:37:29;;;;;;;26.10;21.25;;;;;;;24.34;57.36;99362.59;5071515;28;20053;-82
2023/07/05 05:39:55;;;;;;;28.92;22.27;;;;;;;25.10;54.84;99358.69;5070932;28;20036;-82
2023/07/05 05:42:20;;;;;;;25.92;21.00;;;;;;;25.71;54.05;99336.75;5071496;28;20067;-82
2023/07/05 05:44:46;;;;;;;24.33;20.88;;;;;;;25.52;53.86;99348.69;5071443;28;20043;-82
2023/07/05 05:47:12;;;;;;;25.15;20.80;;;;;;;25.13;55.06;99352.19;5071594;28;20040;-82
2023/07/05 05:49:37;;;;;;;24.38;20.83;;;;;;;24.72;55.35;99351.44;5071924;28;20127;-82
2023/07/05 05:52:03;;;;;;;27.13;21.70;;;;;;;24.55;56.76;99350.63;5070995;28;20046;-82
2023/07/05 05:54:28;;;;;;;29.60;22.30;;;;;;;24.53;56.11;99347.31;5071342;28;20052;-82
2023/07/05 05:56:53;;;;;;;27.65;20.90;;;;;;;24.72;56.07;99354.09;5071005;28;20041;-82
2023/07/05 05:59:19;;;;;;;25.05;21.58;;;;;;;24.94;56.03;99358.69;5071413;28;20582;-82
2023/07/05 06:01:44;;;;;;;25.13;21.38;;;;;;;24.81;55.33;99332.59;5072639;28;20037;-82
2023/07/05 06:04:10;;;;;;;26.95;20.73;;;;;;;24.94;54.60;99347.22;5073384;28;20460;-82
2023/07/05 06:06:35;;;;;;;24.92;21.55;;;;;;;24.89;54.35;99337.06;5074028;28;20028;-82
2023/07/05 06:09:01;;;;;;;26.77;21.80;;;;;;;24.87;55.21;99350.56;5073092;28;20108;-82
2023/07/05 06:11:26;;;;;;;27.52;20.85;;;;;;;24.79;54.59;99333.78;5073065;28;20403;-82
2023/07/05 06:13:51;;;;;;;24.98;20.48;;;;;;;25.04;55.27;99337.22;5073127;28;20024;-82
2023/07/05 06:16:17;;;;;;;24.30;21.13;;;;;;;25.52;54.14;99346.00;5071743;28;20415;-82
2023/07/05 06:18:44;;;;;;;26.55;20.63;;;;;;;25.68;54.33;99337.09;5073168;28;20380;-82
2023/07/05 06:21:11;;;;;;;25.52;21.83;;;;;;;25.85;53.57;99350.19;5072802;28;20028;-82
2023/07/05 06:23:38;;;;;;;26.38;22.35;;;;;;;25.97;53.69;99353.28;5073223;28;20480;-82
2023/07/05 06:26:04;;;;;;;25.77;20.95;;;;;;;26.18;54.11;99344.59;5070842;28;20473;-82
2023/07/05 06:28:29;;;;;;;28.02;22.30;;;;;;;26.38;52.93;99315.56;5073004;28;20046;-82
2023/07/05 06:30:54;;;;;;;28.92;22.83;;;;;;;26.80;53.07;99362.25;5072689;28;20062;-82
2023/07/05 06:33:20;;;;;;;30.95;23.85;;;;;;;27.00;52.58;99341.16;5072989;28;20501;-82
2023/07/05 06:35:50;;;;;;;24.90;21.45;;;;;;;27.32;53.23;99339.97;5072993;28;20071;-82
2023/07/05 06:38:15;;;;;;;24.20;21.63;;;;;;;28.23;52.16;99341.16;5072508;28;20059;-82
2023/07/05 06:40:40;;;;;;;26.67;23.60;;;;;;;29.16;49.64;99349.91;5072778;28;20056;-82
2023/07/05 06:43:06;;;;;;;26.27;23.23;;;;;;;29.66;49.91;99355.88;5072379;28;20028;-82
2023/07/05 06:45:31;;;;;;;27.35;22.10;;;;;;;30.09;48.33;99347.50;5072488;28;20032;-82
2023/07/05 06:47:58;;;;;;;25.13;22.42;;;;;;;31.69;47.21;99350.72;5072688;28;20058;-82
2023/07/05 06:50:24;;;;;;;25.83;21.98;;;;;;;32.90;45.47;99333.44;5072743;28;20055;-83
2023/07/05 06:52:50;;;;;;;27.10;22.42;;;;;;;34.19;43.58;99351.09;5072472;28;20116;-83
2023/07/05 06:55:17;;;;;;;23.10;20.63;;;;;;;34.39;43.21;99336.44;5072397;28;20104;-83
2023/07/05 06:57:43;;;;;;;25.17;20.98;;;;;;;34.29;42.72;99347.00;5072474;28;20029;-82
2023/07/05 07:00:10;;;;;;;25.88;21.45;;;;;;;34.62;42.68;99341.88;5071969;28;20506;-82
2023/07/05 07:02:36;;;;;;;22.23;19.83;;;;;;;35.03;42.37;99323.03;5070317;28;20041;-82
2023/07/05 07:05:02;;;;;;;23.23;20.40;;;;;;;35.58;42.03;99333.34;5070020;28;20089;-83
2023/07/05 07:07:29;;;;;;;22.73;20.42;;;;;;;36.79;41.35;99336.47;5072378;28;20075;-83
2023/07/05 07:09:56;;;;;;;22.67;20.50;;;;;;;37.98;39.96;99329.47;5071991;28;20029;-83
2023/07/05 07:12:21;;;;;;;22.05;19.90;;;;;;;38.60;38.88;99331.59;5069707;28;20123;-81
2023/07/05 07:14:46;;;;;;;22.85;20.25;;;;;;;39.12;38.26;99310.91;5072438;28;20158;-80
2023/07/05 07:17:15;;;;;;;20.65;18.50;;;;;;;39.11;38.51;99318.25;5072211;28;20044;-80
2023/07/05 07:19:40;;;;;;;22.23;19.95;;;;;;;39.23;38.77;99320.75;5072429;28;20047;-80
2023/07/05 07:22:05;;;;;;;21.80;19.77;;;;;;;39.43;38.13;99303.66;5071734;28;20505;-80
2023/07/05 07:24:31;;;;;;;22.67;20.23;;;;;;;39.54;37.84;99316.22;5072132;28;20012;-80
2023/07/05 07:26:57;;;;;;;23.10;20.73;;;;;;;39.31;38.33;99303.88;5071751;28;20476;-80
2023/07/05 07:29:22;;;;;;;22.55;20.45;;;;;;;40.05;38.33;99323.66;5071997;28;20028;-80
2023/07/05 07:31:48;;;;;;;23.85;21.30;;;;;;;40.32;37.40;99313.28;5072036;28;20029;-80
2023/07/05 07:34:13;;;;;;;22.42;20.08;;;;;;;40.35;37.49;99317.38;5072330;28;20107;-80
2023/07/05 07:36:39;;;;;;;21.58;19.33;;;;;;;39.76;37.87;99310.56;5072220;28;20123;-80
2023/07/05 07:39:05;;;;;;;19.52;17.45;;;;;;;40.17;38.37;99310.59;5069471;28;20036;-80
2023/07/05 07:41:34;;;;;;;21.17;18.98;;;;;;;40.49;37.49;99296.59;5069563;28;20060;-82
2023/07/05 07:44:02;;;;;;;21.33;19.25;;;;;;;40.67;37.04;99284.31;5071576;28;20025;-81
2023/07/05 07:46:29;;;;;;;22.27;20.08;;;;;;;40.50;37.28;99298.25;5072233;28;20029;-82
2023/07/05 07:48:58;;;;;;;20.77;18.75;;;;;;;40.68;37.30;99306.97;5072099;28;20055;-81
2023/07/05 07:51:28;;;;;;;20.00;18.10;;;;;;;40.89;36.97;99292.16;5071934;28;20056;-81
2023/07/05 07:53:53;;;;;;;18.50;16.83;;;;;;;40.61;37.16;99288.13;5071768;28;20037;-81
2023/07/05 07:56:21;;;;;;;20.52;18.58;;;;;;;41.14;36.83;99277.59;5071509;28;20483;-81
2023/07/05 07:58:48;;;;;;;19.48;17.58;;;;;;;41.11;36.78;99295.34;5071905;28;20104;-81
2023/07/05 08:01:30;;;;;;;18.45;16.50;;;;;;;40.97;36.93;99304.44;5071319;28;20039;-81
2023/07/05 08:03:57;;;;;;;17.38;15.77;;;;;;;40.53;37.41;99285.94;5071395;28;20105;-81
2023/07/05 08:06:32;;;;;;;17.10;15.40;;;;;;;40.60;37.62;99302.91;5071706;28;20099;-81
2023/07/05 08:08:57;;;;;;;17.45;15.75;;;;;;;40.29;37.81;99289.28;5071480;28;20031;-81
2023/07/05 08:11:23;;;;;;;16.30;14.75;;;;;;;40.70;37.47;99282.94;5071695;28;20472;-82
2023/07/05 08:13:49;;;;;;;17.40;15.60;;;;;;;41.04;37.64;99277.63;5071650;28;20035;-81
2023/07/05 08:16:16;;;;;;;16.35;14.52;;;;;;;39.74;37.90;99287.38;5071661;28;20051;-81
2023/07/05 08:18:46;;;;;;;18.35;15.07;;;;;;;37.73;39.79;99283.00;5071598;28;20025;-81
2023/07/05 08:21:14;;;;;;;16.15;14.55;;;;;;;35.98;41.62;99238.41;5071141;28;20517;-81
2023/07/05 08:23:41;;;;;;;16.33;14.63;;;;;;;34.88;43.91;99255.84;5052759;28;20483;-81
2023/07/05 08:26:06;;;;;;;17.38;14.27;;;;;;;33.88;44.69;99263.03;5071271;28;20420;-80
2023/07/05 08:28:31;;;;;;;19.65;13.43;;;;;;;32.90;46.24;99256.03;5071585;28;20025;-81
2023/07/05 08:30:59;;;;;;;16.00;13.95;;;;;;;31.98;48.08;99250.53;5071605;28;20024;-81
2023/07/05 08:33:26;;;;;;;13.50;12.15;;;;;;;31.46;48.58;99274.03;5073118;28;20035;-80
2023/07/05 08:36:04;;;;;;;14.80;12.02;;;;;;;31.19;49.21;99276.03;5074866;28;20049;-80
2023/07/05 08:38:30;;;;;;;14.68;12.07;;;;;;;30.99;49.84;99249.22;5075182;28;20419;-80
2023/07/05 08:41:16;;;;;;;13.43;10.88;;;;;;;30.79;50.00;99257.34;5075079;28;20028;-80
2023/07/05 08:43:49;;;;;;;12.40;11.10;;;;;;;30.55;50.13;99231.13;5074921;28;20421;-81
2023/07/05 08:46:15;;;;;;;13.43;11.25;;;;;;;30.37;50.40;99253.28;5073641;28;20028;-80
2023/07/05 08:48:43;;;;;;;11.32;10.15;;;;;;;30.27;51.04;99260.97;5075289;28;20029;-80
2023/07/05 08:51:11;;;;;;;12.35;10.82;;;;;;;29.93;51.24;99225.22;5074675;28;20037;-80
2023/07/05 08:53:47;;;;;;;12.00;10.48;;;;;;;30.21;51.73;99254.53;5074792;28;20025;-80
2023/07/05 08:56:18;;;;;;;15.20;11.02;;;;;;;30.39;51.48;99247.72;5074383;28;20111;-80
2023/07/05 08:58:56;;;;;;;13.88;10.07;;;;;;;30.50;51.04;99253.25;5074577;28;20074;-80
2023/07/05 09:01:35;;;;;;;13.48;11.15;;;;;;;30.55;51.50;99256.16;5074393;28;20090;-80
2023/07/05 09:04:01;;;;;;;11.82;10.43;;;;;;;30.43;50.24;99238.22;5075086;28;20028;-81
2023/07/05 09:06:47;;;;;;;12.68;10.32;;;;;;;30.46;49.41;99248.50;5074510;28;20032;-80
2023/07/05 09:09:35;;;;;;;12.00;9.65;;;;;;;30.46;48.70;99252.03;5074362;28;20520;-80
2023/07/05 09:12:16;;;;;;;12.82;10.25;;;;;;;30.25;49.33;99236.16;5074526;28;20028;-80
2023/07/05 09:14:59;;;;;;;12.10;9.23;;;;;;;29.94;50.00;99242.97;5074093;28;20028;-80
2023/07/05 09:17:27;;;;;;;14.52;10.52;;;;;;;29.96;49.54;99227.50;5073883;28;20559;-82
2023/07/05 09:20:24;;;;;;;14.82;11.48;;;;;;;29.90;50.28;99239.03;5074280;28;20073;-80
2023/07/05 09:22:51;;;;;;;10.45;8.98;;;;;;;29.57;48.23;99204.13;5072993;28;20039;-80
2023/07/05 09:25:21;;;;;;;16.33;10.38;;;;;;;29.49;49.54;99218.53;5074019;28;20028;-80
2023/07/05 09:27:51;;;;;;;11.05;9.10;;;;;;;29.40;49.32;99216.25;5075558;28;20056;-81
2023/07/05 09:30:24;;;;;;;13.43;9.98;;;;;;;29.49;50.03;99237.31;5092784;28;20074;-81
2023/07/05 09:33:00;;;;;;;11.25;9.98;;;;;;;29.30;50.92;99200.56;5093185;28;20028;-81
2023/07/05 09:35:29;;;;;;;14.50;9.93;;;;;;;29.41;50.97;99205.31;5090337;28;20032;-81
2023/07/05 09:38:01;;;;;;;11.02;9.38;;;;;;;29.57;50.45;99228.28;5092764;28;20035;-81
2023/07/05 09:40:31;;;;;;;11.15;8.38;;;;;;;29.78;48.65;99221.91;5090223;28;20054;-81
2023/07/05 09:42:58;;;;;;;13.15;9.00;;;;;;;29.68;46.23;99216.13;5092738;28;20020;-81
2023/07/05 09:45:25;;;;;;;12.65;8.73;;;;;;;29.62;45.68;99219.59;5091603;28;20531;-81
2023/07/05 09:48:01;;;;;;;10.25;8.18;;;;;;;29.52;45.73;99204.72;5093852;28;20053;-83
2023/07/05 09:50:28;;;;;;;9.93;7.93;;;;;;;29.63;46.75;99207.88;5093009;28;20036;-82
2023/07/05 09:53:19;;;;;;;9.85;7.72;;;;;;;29.75;46.36;99201.69;5093721;28;20475;-82
2023/07/05 09:56:09;;;;;;;11.32;8.05;;;;;;;29.91;46.17;99213.00;5093736;28;20032;-82
2023/07/05 09:58:36;;;;;;;10.48;7.75;;;;;;;30.07;46.82;99213.41;5093710;28;20024;-82
2023/07/05 10:01:04;;;;;;;8.80;7.88;;;;;;;30.06;47.39;99190.28;5093606;28;20032;-82
2023/07/05 10:03:34;;;;;;;8.75;7.82;;;;;;;30.20;47.83;99209.09;5093425;28;20372;-82
2023/07/05 10:06:07;;;;;;;8.05;6.97;;;;;;;30.13;46.75;99184.91;5093660;28;20031;-82
2023/07/05 10:08:44;;;;;;;11.25;7.72;;;;;;;30.29;47.14;99186.34;5093505;28;20030;-82
2023/07/05 10:11:36;;;;;;;9.27;7.68;;;;;;;30.26;47.30;99182.22;5093496;28;20383;-82
2023/07/05 10:14:12;;;;;;;9.95;7.97;;;;;;;30.45;47.82;99191.25;5093823;28;20074;-82
2023/07/05 10:16:58;;;;;;;9.02;7.30;;;;;;;30.46;47.85;99192.09;5093494;28;20028;-82
2023/07/05 10:19:30;;;;;;;9.52;7.35;;;;;;;30.53;46.87;99188.34;5093067;28;20376;-82
2023/07/05 10:22:01;;;;;;;10.02;6.13;;;;;;;30.37;46.76;99167.31;5093560;28;20032;-82
2023/07/05 10:24:29;;;;;;;6.97;5.72;;;;;;;30.26;47.02;99158.06;5093211;28;20020;-82
2023/07/05 10:27:08;;;;;;;8.60;6.75;;;;;;;30.40;47.30;99168.75;5093412;28;20024;-82
2023/07/05 10:29:35;;;;;;;10.23;6.25;;;;;;;30.42;47.25;99159.44;5093236;28;20066;-82
2023/07/05 10:32:00;;;;;;;7.97;5.82;;;;;;;30.56;47.59;99168.28;5093046;28;20024;-82
2023/07/05 10:34:26;;;;;;;8.93;6.28;;;;;;;30.59;47.13;99175.91;5092939;28;20391;-82
2023/07/05 10:36:52;;;;;;;7.68;6.72;;;;;;;30.44;47.89;99145.81;5093054;28;20052;-82
2023/07/05 10:39:23;;;;;;;9.30;6.28;;;;;;;30.59;47.56;99159.78;5092763;28;20031;-81
2023/07/05 10:41:51;;;;;;;9.13;7.15;;;;;;;30.44;47.71;99161.94;5093011;28;20492;-81
2023/07/05 10:44:29;;;;;;;8.48;6.65;;;;;;;30.48;48.70;99158.59;5092593;28;20117;-82
2023/07/05 10:46:56;;;;;;;7.88;6.65;;;;;;;30.63;48.61;99157.50;5092828;28;20044;-82
2023/07/05 10:49:23;;;;;;;7.07;6.35;;;;;;;30.91;48.42;99166.09;5092526;28;20034;-82
2023/07/05 10:52:00;;;;;;;7.15;6.45;;;;;;;31.05;48.06;99161.44;5092765;28;20036;-82
2023/07/05 10:54:47;;;;;;;7.25;6.55;;;;;;;31.20;48.14;99159.28;5091371;28;20032;-82
2023/07/05 10:57:29;;;;;;;9.48;7.55;;;;;;;31.31;48.36;99141.69;5092196;28;20032;-82
2023/07/05 11:00:09;;;;;;;6.53;5.93;;;;;;;31.46;47.43;99157.50;5092879;28;20035;-80
2023/07/05 11:02:37;;;;;;;8.68;6.75;;;;;;;31.43;46.85;99163.31;5092802;28;20542;-82
2023/07/05 11:05:15;;;;;;;8.23;6.65;;;;;;;31.35;47.22;99163.56;5090119;28;20047;-82
2023/07/05 11:07:43;;;;;;;8.20;6.18;;;;;;;31.41;47.25;99149.25;5092520;28;20028;-82
2023/07/05 11:10:13;;;;;;;6.68;6.07;;;;;;;31.29;46.80;99130.28;5092234;28;20644;-82
2023/07/05 11:12:40;;;;;;;11.02;5.40;;;;;;;31.19;46.75;99125.38;5092820;28;20578;-82
2023/07/05 11:15:13;;;;;;;8.02;5.93;;;;;;;30.89;47.09;99127.00;5092602;28;20597;-82
2023/07/05 11:17:41;;;;;;;9.30;6.03;;;;;;;30.91;47.86;99141.88;5092377;28;20024;-82
2023/07/05 11:20:34;;;;;;;9.32;5.70;;;;;;;30.91;47.81;99141.06;5092276;28;20490;-82
2023/07/05 11:22:59;;;;;;;7.20;5.80;;;;;;;30.92;47.85;99131.94;5092508;28;20077;-82
2023/07/05 11:25:52;;;;;;;7.95;6.07;;;;;;;30.98;48.02;99131.09;5092513;28;20035;-82
2023/07/05 11:28:37;;;;;;;6.93;5.72;;;;;;;31.10;48.73;99121.31;5092065;28;20035;-82